sensor_id;sensor_type;location;lat;lon;timestamp;P1;durP1;ratioP1;P2;durP2;ratioP2
22015;SDS011;11172;51.698;-0.292;2022-07-09T00:00:50;721.38;;;393.35;;
22015;SDS011;11172;51.698;-0.292;2022-07-09T00:03:16;722.58;;;391.40;;
22015;SDS011;11172;51.698;-0.292;2022-07-09T00:05:42;717.80;;;386.38;;
22015;SDS011;11172;51.698;-0.292;2022-07-09T00:08:08;719.13;;;391.95;;
22015;SDS011;11172;51.698;-0.292;2022-07-09T00:10:34;723.42;;;390.98;;
22015;SDS011;11172;51.698;-0.292;2022-07-09T00:13:00;721.22;;;393.27;;
22015;SDS011;11172;51.698;-0.292;2022-07-09T00:15:26;725.88;;;399.00;;
22015;SDS011;11172;51.698;-0.292;2022-07-09T00:17:52;721.03;;;389.00;;
22015;SDS011;11172;51.698;-0.292;2022-07-09T00:20:19;723.40;;;392.17;;
22015;SDS011;11172;51.698;-0.292;2022-07-09T00:22:45;720.50;;;380.48;;
22015;SDS011;11172;51.698;-0.292;2022-07-09T00:25:11;712.33;;;373.92;;
22015;SDS011;11172;51.698;-0.292;2022-07-09T00:27:37;715.20;;;376.98;;
22015;SDS011;11172;51.698;-0.292;2022-07-09T00:30:03;717.78;;;381.33;;
22015;SDS011;11172;51.698;-0.292;2022-07-09T00:32:29;719.63;;;370.67;;
22015;SDS011;11172;51.698;-0.292;2022-07-09T00:34:55;711.40;;;364.63;;
22015;SDS011;11172;51.698;-0.292;2022-07-09T00:37:21;709.67;;;363.25;;
22015;SDS011;11172;51.698;-0.292;2022-07-09T00:39:47;709.15;;;366.02;;
22015;SDS011;11172;51.698;-0.292;2022-07-09T00:42:13;711.25;;;369.55;;
22015;SDS011;11172;51.698;-0.292;2022-07-09T00:44:39;712.03;;;375.05;;
22015;SDS011;11172;51.698;-0.292;2022-07-09T00:47:06;711.28;;;362.38;;
22015;SDS011;11172;51.698;-0.292;2022-07-09T00:49:34;706.95;;;357.67;;
22015;SDS011;11172;51.698;-0.292;2022-07-09T00:52:01;701.88;;;350.98;;
22015;SDS011;11172;51.698;-0.292;2022-07-09T00:54:28;709.03;;;354.25;;
22015;SDS011;11172;51.698;-0.292;2022-07-09T00:56:54;712.35;;;366.08;;
22015;SDS011;11172;51.698;-0.292;2022-07-09T00:59:21;708.20;;;361.85;;
22015;SDS011;11172;51.698;-0.292;2022-07-09T01:01:50;709.55;;;357.88;;
22015;SDS011;11172;51.698;-0.292;2022-07-09T01:04:16;714.45;;;362.67;;
22015;SDS011;11172;51.698;-0.292;2022-07-09T01:06:43;701.75;;;345.98;;
22015;SDS011;11172;51.698;-0.292;2022-07-09T01:09:09;709.13;;;346.20;;
22015;SDS011;11172;51.698;-0.292;2022-07-09T01:11:35;708.25;;;355.83;;
22015;SDS011;11172;51.698;-0.292;2022-07-09T01:14:01;705.38;;;349.27;;
22015;SDS011;11172;51.698;-0.292;2022-07-09T01:16:34;705.88;;;352.60;;
22015;SDS011;11172;51.698;-0.292;2022-07-09T01:19:01;693.63;;;327.30;;
22015;SDS011;11172;51.698;-0.292;2022-07-09T01:21:27;709.60;;;354.17;;
22015;SDS011;11172;51.698;-0.292;2022-07-09T01:23:53;701.33;;;340.65;;
22015;SDS011;11172;51.698;-0.292;2022-07-09T01:26:19;702.83;;;342.95;;
22015;SDS011;11172;51.698;-0.292;2022-07-09T01:28:46;702.28;;;341.23;;
22015;SDS011;11172;51.698;-0.292;2022-07-09T01:31:12;703.47;;;345.02;;
22015;SDS011;11172;51.698;-0.292;2022-07-09T01:33:38;698.10;;;325.33;;
22015;SDS011;11172;51.698;-0.292;2022-07-09T01:36:05;699.20;;;329.15;;
22015;SDS011;11172;51.698;-0.292;2022-07-09T01:38:31;700.45;;;340.50;;
22015;SDS011;11172;51.698;-0.292;2022-07-09T01:40:57;712.45;;;333.70;;
22015;SDS011;11172;51.698;-0.292;2022-07-09T01:43:23;699.58;;;332.77;;
22015;SDS011;11172;51.698;-0.292;2022-07-09T01:45:49;693.30;;;321.08;;
22015;SDS011;11172;51.698;-0.292;2022-07-09T01:48:15;704.10;;;338.30;;
22015;SDS011;11172;51.698;-0.292;2022-07-09T01:50:41;694.15;;;321.88;;
22015;SDS011;11172;51.698;-0.292;2022-07-09T01:53:07;701.92;;;329.98;;
22015;SDS011;11172;51.698;-0.292;2022-07-09T01:55:33;701.15;;;338.15;;
22015;SDS011;11172;51.698;-0.292;2022-07-09T01:57:59;698.88;;;336.27;;
22015;SDS011;11172;51.698;-0.292;2022-07-09T02:00:25;704.60;;;330.90;;
22015;SDS011;11172;51.698;-0.292;2022-07-09T02:02:53;697.53;;;329.67;;
22015;SDS011;11172;51.698;-0.292;2022-07-09T02:05:20;695.58;;;315.40;;
22015;SDS011;11172;51.698;-0.292;2022-07-09T02:07:46;691.55;;;308.92;;
22015;SDS011;11172;51.698;-0.292;2022-07-09T02:10:12;692.75;;;310.73;;
22015;SDS011;11172;51.698;-0.292;2022-07-09T02:12:38;696.85;;;322.20;;
22015;SDS011;11172;51.698;-0.292;2022-07-09T02:15:05;693.80;;;319.27;;
22015;SDS011;11172;51.698;-0.292;2022-07-09T02:17:32;692.60;;;319.20;;
22015;SDS011;11172;51.698;-0.292;2022-07-09T02:19:58;692.78;;;317.83;;
22015;SDS011;11172;51.698;-0.292;2022-07-09T02:22:24;693.95;;;320.45;;
22015;SDS011;11172;51.698;-0.292;2022-07-09T02:24:50;691.92;;;307.23;;
22015;SDS011;11172;51.698;-0.292;2022-07-09T02:27:16;694.25;;;315.88;;
22015;SDS011;11172;51.698;-0.292;2022-07-09T02:29:42;691.97;;;314.65;;
22015;SDS011;11172;51.698;-0.292;2022-07-09T02:32:08;694.13;;;312.88;;
22015;SDS011;11172;51.698;-0.292;2022-07-09T02:34:35;691.95;;;308.80;;
22015;SDS011;11172;51.698;-0.292;2022-07-09T02:37:02;686.63;;;301.23;;
22015;SDS011;11172;51.698;-0.292;2022-07-09T02:39:29;685.88;;;303.58;;
22015;SDS011;11172;51.698;-0.292;2022-07-09T02:41:55;687.90;;;300.67;;
22015;SDS011;11172;51.698;-0.292;2022-07-09T02:44:21;693.35;;;301.85;;
22015;SDS011;11172;51.698;-0.292;2022-07-09T02:46:47;689.15;;;311.02;;
22015;SDS011;11172;51.698;-0.292;2022-07-09T02:49:13;684.80;;;297.88;;
22015;SDS011;11172;51.698;-0.292;2022-07-09T02:51:39;690.95;;;302.52;;
22015;SDS011;11172;51.698;-0.292;2022-07-09T02:54:05;688.47;;;304.38;;
22015;SDS011;11172;51.698;-0.292;2022-07-09T02:56:31;682.42;;;293.77;;
22015;SDS011;11172;51.698;-0.292;2022-07-09T02:58:57;687.40;;;300.02;;
22015;SDS011;11172;51.698;-0.292;2022-07-09T03:01:23;683.80;;;299.20;;
22015;SDS011;11172;51.698;-0.292;2022-07-09T03:03:49;687.25;;;297.58;;
22015;SDS011;11172;51.698;-0.292;2022-07-09T03:06:15;691.95;;;297.77;;
22015;SDS011;11172;51.698;-0.292;2022-07-09T03:08:41;688.75;;;308.27;;
22015;SDS011;11172;51.698;-0.292;2022-07-09T03:11:07;687.60;;;301.85;;
22015;SDS011;11172;51.698;-0.292;2022-07-09T03:13:34;687.60;;;297.70;;
22015;SDS011;11172;51.698;-0.292;2022-07-09T03:16:00;683.38;;;291.63;;
22015;SDS011;11172;51.698;-0.292;2022-07-09T03:18:26;684.03;;;301.33;;
22015;SDS011;11172;51.698;-0.292;2022-07-09T03:20:52;688.63;;;301.80;;
22015;SDS011;11172;51.698;-0.292;2022-07-09T03:23:18;686.30;;;299.40;;
22015;SDS011;11172;51.698;-0.292;2022-07-09T03:25:44;680.80;;;288.05;;
22015;SDS011;11172;51.698;-0.292;2022-07-09T03:28:10;689.45;;;308.17;;
22015;SDS011;11172;51.698;-0.292;2022-07-09T03:30:36;685.33;;;292.30;;
22015;SDS011;11172;51.698;-0.292;2022-07-09T03:33:02;677.55;;;286.65;;
22015;SDS011;11172;51.698;-0.292;2022-07-09T03:35:28;694.10;;;308.10;;
22015;SDS011;11172;51.698;-0.292;2022-07-09T03:37:54;677.83;;;282.20;;
22015;SDS011;11172;51.698;-0.292;2022-07-09T03:40:20;682.75;;;289.58;;
22015;SDS011;11172;51.698;-0.292;2022-07-09T03:42:46;684.88;;;296.80;;
22015;SDS011;11172;51.698;-0.292;2022-07-09T03:45:12;682.60;;;284.55;;
22015;SDS011;11172;51.698;-0.292;2022-07-09T03:47:38;686.35;;;300.98;;
22015;SDS011;11172;51.698;-0.292;2022-07-09T03:50:05;681.13;;;286.23;;
22015;SDS011;11172;51.698;-0.292;2022-07-09T03:52:31;681.60;;;285.83;;
22015;SDS011;11172;51.698;-0.292;2022-07-09T03:54:57;680.40;;;287.98;;
22015;SDS011;11172;51.698;-0.292;2022-07-09T03:57:23;677.08;;;277.33;;
22015;SDS011;11172;51.698;-0.292;2022-07-09T03:59:49;676.22;;;280.27;;
22015;SDS011;11172;51.698;-0.292;2022-07-09T04:02:15;675.63;;;282.02;;
22015;SDS011;11172;51.698;-0.292;2022-07-09T04:04:41;678.58;;;279.35;;
22015;SDS011;11172;51.698;-0.292;2022-07-09T04:07:08;681.42;;;289.20;;
22015;SDS011;11172;51.698;-0.292;2022-07-09T04:09:34;676.55;;;276.20;;
22015;SDS011;11172;51.698;-0.292;2022-07-09T04:12:00;680.35;;;272.73;;
22015;SDS011;11172;51.698;-0.292;2022-07-09T04:14:26;679.75;;;283.42;;
22015;SDS011;11172;51.698;-0.292;2022-07-09T04:16:52;684.28;;;276.27;;
22015;SDS011;11172;51.698;-0.292;2022-07-09T04:19:19;673.80;;;278.17;;
22015;SDS011;11172;51.698;-0.292;2022-07-09T04:21:45;675.10;;;274.90;;
22015;SDS011;11172;51.698;-0.292;2022-07-09T04:24:11;676.67;;;282.33;;
22015;SDS011;11172;51.698;-0.292;2022-07-09T04:26:37;684.22;;;295.25;;
22015;SDS011;11172;51.698;-0.292;2022-07-09T04:29:03;683.78;;;298.00;;
22015;SDS011;11172;51.698;-0.292;2022-07-09T04:31:29;691.88;;;305.50;;
22015;SDS011;11172;51.698;-0.292;2022-07-09T04:33:55;700.03;;;327.45;;
22015;SDS011;11172;51.698;-0.292;2022-07-09T04:36:21;700.75;;;331.65;;
22015;SDS011;11172;51.698;-0.292;2022-07-09T04:38:47;706.40;;;348.13;;
22015;SDS011;11172;51.698;-0.292;2022-07-09T04:41:13;713.80;;;359.52;;
22015;SDS011;11172;51.698;-0.292;2022-07-09T04:43:39;717.00;;;372.98;;
22015;SDS011;11172;51.698;-0.292;2022-07-09T04:46:05;720.63;;;384.33;;
22015;SDS011;11172;51.698;-0.292;2022-07-09T04:48:31;719.45;;;393.65;;
22015;SDS011;11172;51.698;-0.292;2022-07-09T04:50:57;719.70;;;384.98;;
22015;SDS011;11172;51.698;-0.292;2022-07-09T04:53:23;718.22;;;384.25;;
22015;SDS011;11172;51.698;-0.292;2022-07-09T04:55:49;711.10;;;363.77;;
22015;SDS011;11172;51.698;-0.292;2022-07-09T04:58:16;715.50;;;366.73;;
22015;SDS011;11172;51.698;-0.292;2022-07-09T05:00:42;706.38;;;353.23;;
22015;SDS011;11172;51.698;-0.292;2022-07-09T05:03:08;707.58;;;351.10;;
22015;SDS011;11172;51.698;-0.292;2022-07-09T05:05:34;711.85;;;358.13;;
22015;SDS011;11172;51.698;-0.292;2022-07-09T05:08:00;704.08;;;344.23;;
22015;SDS011;11172;51.698;-0.292;2022-07-09T05:10:26;708.70;;;346.52;;
22015;SDS011;11172;51.698;-0.292;2022-07-09T05:12:52;699.08;;;331.25;;
22015;SDS011;11172;51.698;-0.292;2022-07-09T05:15:18;712.28;;;347.58;;
22015;SDS011;11172;51.698;-0.292;2022-07-09T05:17:47;702.67;;;331.60;;
22015;SDS011;11172;51.698;-0.292;2022-07-09T05:20:13;702.38;;;328.35;;
22015;SDS011;11172;51.698;-0.292;2022-07-09T05:22:39;698.78;;;328.55;;
22015;SDS011;11172;51.698;-0.292;2022-07-09T05:25:05;700.40;;;338.58;;
22015;SDS011;11172;51.698;-0.292;2022-07-09T05:27:32;700.95;;;331.77;;
22015;SDS011;11172;51.698;-0.292;2022-07-09T05:29:58;698.33;;;334.77;;
22015;SDS011;11172;51.698;-0.292;2022-07-09T05:32:24;700.35;;;334.27;;
22015;SDS011;11172;51.698;-0.292;2022-07-09T05:34:50;703.38;;;341.73;;
22015;SDS011;11172;51.698;-0.292;2022-07-09T05:37:16;706.63;;;352.17;;
22015;SDS011;11172;51.698;-0.292;2022-07-09T05:39:42;710.00;;;359.42;;
22015;SDS011;11172;51.698;-0.292;2022-07-09T05:42:09;725.65;;;391.25;;
22015;SDS011;11172;51.698;-0.292;2022-07-09T05:44:35;734.80;;;418.83;;
22015;SDS011;11172;51.698;-0.292;2022-07-09T05:47:01;746.60;;;445.35;;
22015;SDS011;11172;51.698;-0.292;2022-07-09T05:49:27;765.25;;;482.08;;
22015;SDS011;11172;51.698;-0.292;2022-07-09T05:51:53;768.35;;;504.65;;
22015;SDS011;11172;51.698;-0.292;2022-07-09T05:54:19;779.58;;;530.10;;
22015;SDS011;11172;51.698;-0.292;2022-07-09T05:56:45;790.17;;;559.03;;
22015;SDS011;11172;51.698;-0.292;2022-07-09T05:59:11;784.08;;;544.92;;
22015;SDS011;11172;51.698;-0.292;2022-07-09T06:01:37;784.33;;;547.15;;
22015;SDS011;11172;51.698;-0.292;2022-07-09T06:04:07;784.20;;;547.45;;
22015;SDS011;11172;51.698;-0.292;2022-07-09T06:06:34;784.17;;;541.92;;
22015;SDS011;11172;51.698;-0.292;2022-07-09T06:09:00;774.88;;;532.33;;
22015;SDS011;11172;51.698;-0.292;2022-07-09T06:11:26;771.05;;;524.40;;
22015;SDS011;11172;51.698;-0.292;2022-07-09T06:13:52;770.92;;;508.73;;
22015;SDS011;11172;51.698;-0.292;2022-07-09T06:16:18;755.72;;;477.05;;
22015;SDS011;11172;51.698;-0.292;2022-07-09T06:18:44;766.63;;;498.77;;
22015;SDS011;11172;51.698;-0.292;2022-07-09T06:21:10;764.78;;;494.83;;
22015;SDS011;11172;51.698;-0.292;2022-07-09T06:23:36;759.47;;;483.45;;
22015;SDS011;11172;51.698;-0.292;2022-07-09T06:26:02;757.38;;;477.65;;
22015;SDS011;11172;51.698;-0.292;2022-07-09T06:28:28;759.33;;;482.30;;
22015;SDS011;11172;51.698;-0.292;2022-07-09T06:30:54;760.60;;;472.05;;
22015;SDS011;11172;51.698;-0.292;2022-07-09T06:33:20;754.72;;;468.15;;
22015;SDS011;11172;51.698;-0.292;2022-07-09T06:35:46;759.13;;;465.27;;
22015;SDS011;11172;51.698;-0.292;2022-07-09T06:38:12;750.10;;;454.60;;
22015;SDS011;11172;51.698;-0.292;2022-07-09T06:40:38;755.95;;;464.52;;
22015;SDS011;11172;51.698;-0.292;2022-07-09T06:43:04;743.80;;;447.98;;
22015;SDS011;11172;51.698;-0.292;2022-07-09T06:45:30;745.28;;;447.42;;
22015;SDS011;11172;51.698;-0.292;2022-07-09T06:47:56;755.80;;;469.65;;
22015;SDS011;11172;51.698;-0.292;2022-07-09T06:50:22;749.47;;;446.55;;
22015;SDS011;11172;51.698;-0.292;2022-07-09T06:52:48;760.90;;;467.80;;
22015;SDS011;11172;51.698;-0.292;2022-07-09T06:55:14;761.35;;;470.35;;
22015;SDS011;11172;51.698;-0.292;2022-07-09T06:57:40;757.97;;;472.75;;
22015;SDS011;11172;51.698;-0.292;2022-07-09T07:00:07;753.78;;;462.38;;
22015;SDS011;11172;51.698;-0.292;2022-07-09T07:02:33;755.92;;;469.15;;
22015;SDS011;11172;51.698;-0.292;2022-07-09T07:04:59;758.20;;;469.17;;
22015;SDS011;11172;51.698;-0.292;2022-07-09T07:07:25;753.35;;;461.23;;
22015;SDS011;11172;51.698;-0.292;2022-07-09T07:09:51;763.97;;;491.48;;
22015;SDS011;11172;51.698;-0.292;2022-07-09T07:12:17;771.58;;;498.73;;
22015;SDS011;11172;51.698;-0.292;2022-07-09T07:14:43;769.13;;;506.88;;
22015;SDS011;11172;51.698;-0.292;2022-07-09T07:17:09;770.00;;;511.55;;
22015;SDS011;11172;51.698;-0.292;2022-07-09T07:19:35;765.38;;;503.45;;
22015;SDS011;11172;51.698;-0.292;2022-07-09T07:22:01;771.83;;;518.67;;
22015;SDS011;11172;51.698;-0.292;2022-07-09T07:24:27;773.53;;;522.17;;
22015;SDS011;11172;51.698;-0.292;2022-07-09T07:26:55;785.67;;;533.70;;
22015;SDS011;11172;51.698;-0.292;2022-07-09T07:29:21;775.08;;;531.47;;
22015;SDS011;11172;51.698;-0.292;2022-07-09T07:31:47;786.75;;;544.03;;
22015;SDS011;11172;51.698;-0.292;2022-07-09T07:34:14;786.10;;;557.47;;
22015;SDS011;11172;51.698;-0.292;2022-07-09T07:36:40;781.95;;;544.58;;
22015;SDS011;11172;51.698;-0.292;2022-07-09T07:39:06;779.13;;;545.25;;
22015;SDS011;11172;51.698;-0.292;2022-07-09T07:41:32;783.13;;;550.08;;
22015;SDS011;11172;51.698;-0.292;2022-07-09T07:43:58;776.80;;;542.42;;
22015;SDS011;11172;51.698;-0.292;2022-07-09T07:46:24;784.17;;;552.00;;
22015;SDS011;11172;51.698;-0.292;2022-07-09T07:48:50;802.45;;;551.70;;
22015;SDS011;11172;51.698;-0.292;2022-07-09T07:51:16;780.40;;;547.80;;
22015;SDS011;11172;51.698;-0.292;2022-07-09T07:53:42;786.42;;;559.00;;
22015;SDS011;11172;51.698;-0.292;2022-07-09T07:56:08;783.55;;;550.53;;
22015;SDS011;11172;51.698;-0.292;2022-07-09T07:58:34;777.40;;;540.15;;
22015;SDS011;11172;51.698;-0.292;2022-07-09T08:01:01;792.22;;;562.75;;
22015;SDS011;11172;51.698;-0.292;2022-07-09T08:03:27;793.33;;;563.75;;
22015;SDS011;11172;51.698;-0.292;2022-07-09T08:05:53;785.88;;;552.13;;
22015;SDS011;11172;51.698;-0.292;2022-07-09T08:08:19;777.92;;;543.90;;
22015;SDS011;11172;51.698;-0.292;2022-07-09T08:10:46;786.83;;;551.42;;
22015;SDS011;11172;51.698;-0.292;2022-07-09T08:13:13;774.45;;;546.25;;
22015;SDS011;11172;51.698;-0.292;2022-07-09T08:15:39;773.55;;;541.83;;
22015;SDS011;11172;51.698;-0.292;2022-07-09T08:18:06;787.38;;;556.95;;
22015;SDS011;11172;51.698;-0.292;2022-07-09T08:20:37;799.20;;;570.65;;
22015;SDS011;11172;51.698;-0.292;2022-07-09T08:23:03;786.05;;;573.17;;
22015;SDS011;11172;51.698;-0.292;2022-07-09T08:25:29;789.17;;;581.55;;
22015;SDS011;11172;51.698;-0.292;2022-07-09T08:27:55;796.22;;;595.65;;
22015;SDS011;11172;51.698;-0.292;2022-07-09T08:30:21;807.10;;;610.90;;
22015;SDS011;11172;51.698;-0.292;2022-07-09T08:32:47;798.75;;;603.28;;
22015;SDS011;11172;51.698;-0.292;2022-07-09T08:35:13;803.67;;;597.90;;
22015;SDS011;11172;51.698;-0.292;2022-07-09T08:37:41;794.00;;;588.75;;
22015;SDS011;11172;51.698;-0.292;2022-07-09T08:40:07;798.75;;;594.15;;
22015;SDS011;11172;51.698;-0.292;2022-07-09T08:42:33;791.08;;;578.45;;
22015;SDS011;11172;51.698;-0.292;2022-07-09T08:44:59;784.80;;;568.38;;
22015;SDS011;11172;51.698;-0.292;2022-07-09T08:47:25;781.30;;;561.03;;
22015;SDS011;11172;51.698;-0.292;2022-07-09T08:49:56;782.75;;;560.30;;
22015;SDS011;11172;51.698;-0.292;2022-07-09T08:52:25;786.75;;;566.38;;
22015;SDS011;11172;51.698;-0.292;2022-07-09T08:54:54;793.55;;;586.70;;
22015;SDS011;11172;51.698;-0.292;2022-07-09T08:57:20;807.88;;;619.70;;
22015;SDS011;11172;51.698;-0.292;2022-07-09T08:59:47;818.53;;;650.58;;
22015;SDS011;11172;51.698;-0.292;2022-07-09T09:02:13;824.22;;;661.47;;
22015;SDS011;11172;51.698;-0.292;2022-07-09T09:04:40;839.72;;;701.17;;
22015;SDS011;11172;51.698;-0.292;2022-07-09T09:09:38;890.55;;;792.97;;
22015;SDS011;11172;51.698;-0.292;2022-07-09T09:12:06;892.25;;;794.60;;
22015;SDS011;11172;51.698;-0.292;2022-07-09T09:14:32;912.42;;;812.88;;
22015;SDS011;11172;51.698;-0.292;2022-07-09T09:17:07;916.47;;;817.30;;
22015;SDS011;11172;51.698;-0.292;2022-07-09T09:19:35;926.95;;;827.45;;
22015;SDS011;11172;51.698;-0.292;2022-07-09T09:22:01;921.13;;;822.17;;
22015;SDS011;11172;51.698;-0.292;2022-07-09T09:24:27;968.17;;;866.95;;
22015;SDS011;11172;51.698;-0.292;2022-07-09T09:26:59;1029.88;;;925.13;;
22015;SDS011;11172;51.698;-0.292;2022-07-09T09:29:26;1079.40;;;971.83;;
22015;SDS011;11172;51.698;-0.292;2022-07-09T09:31:52;1133.50;;;999.90;;
22015;SDS011;11172;51.698;-0.292;2022-07-09T09:34:18;1173.05;;;999.90;;
22015;SDS011;11172;51.698;-0.292;2022-07-09T09:41:37;1160.55;;;999.90;;
22015;SDS011;11172;51.698;-0.292;2022-07-09T09:44:04;1167.43;;;999.90;;
22015;SDS011;11172;51.698;-0.292;2022-07-09T09:46:32;1185.53;;;999.90;;
22015;SDS011;11172;51.698;-0.292;2022-07-09T09:48:59;1176.25;;;999.90;;
22015;SDS011;11172;51.698;-0.292;2022-07-09T09:51:27;1147.90;;;999.90;;
22015;SDS011;11172;51.698;-0.292;2022-07-09T09:53:56;1142.50;;;999.90;;
22015;SDS011;11172;51.698;-0.292;2022-07-09T09:56:23;1141.75;;;999.90;;
22015;SDS011;11172;51.698;-0.292;2022-07-09T09:58:50;1158.97;;;999.90;;
22015;SDS011;11172;51.698;-0.292;2022-07-09T10:01:16;1171.30;;;999.90;;
22015;SDS011;11172;51.698;-0.292;2022-07-09T10:03:42;1183.78;;;999.90;;
22015;SDS011;11172;51.698;-0.292;2022-07-09T10:06:09;1175.00;;;999.90;;
22015;SDS011;11172;51.698;-0.292;2022-07-09T10:08:35;1150.25;;;999.90;;
22015;SDS011;11172;51.698;-0.292;2022-07-09T10:11:01;1169.38;;;999.90;;
22015;SDS011;11172;51.698;-0.292;2022-07-09T10:13:27;1153.60;;;999.90;;
22015;SDS011;11172;51.698;-0.292;2022-07-09T10:15:54;1141.45;;;999.90;;
22015;SDS011;11172;51.698;-0.292;2022-07-09T10:18:20;1120.13;;;998.83;;
22015;SDS011;11172;51.698;-0.292;2022-07-09T10:20:46;1111.30;;;995.78;;
22015;SDS011;11172;51.698;-0.292;2022-07-09T10:23:20;1089.35;;;982.35;;
22015;SDS011;11172;51.698;-0.292;2022-07-09T10:25:51;1101.40;;;990.67;;
22015;SDS011;11172;51.698;-0.292;2022-07-09T10:28:20;1099.50;;;988.72;;
22015;SDS011;11172;51.698;-0.292;2022-07-09T10:30:47;1094.57;;;986.47;;
22015;SDS011;11172;51.698;-0.292;2022-07-09T10:33:17;1108.35;;;994.10;;
22015;SDS011;11172;51.698;-0.292;2022-07-09T10:35:47;1131.47;;;999.90;;
22015;SDS011;11172;51.698;-0.292;2022-07-09T10:38:13;1157.68;;;999.90;;
22015;SDS011;11172;51.698;-0.292;2022-07-09T10:40:41;1163.57;;;999.90;;
22015;SDS011;11172;51.698;-0.292;2022-07-09T10:43:07;1153.05;;;999.90;;
22015;SDS011;11172;51.698;-0.292;2022-07-09T10:48:00;1155.28;;;999.90;;
22015;SDS011;11172;51.698;-0.292;2022-07-09T10:50:28;1153.35;;;999.90;;
22015;SDS011;11172;51.698;-0.292;2022-07-09T10:52:54;1165.57;;;999.90;;
22015;SDS011;11172;51.698;-0.292;2022-07-09T10:55:24;1177.63;;;999.90;;
22015;SDS011;11172;51.698;-0.292;2022-07-09T10:57:51;1196.93;;;999.90;;
22015;SDS011;11172;51.698;-0.292;2022-07-09T11:00:18;1183.15;;;999.90;;
22015;SDS011;11172;51.698;-0.292;2022-07-09T11:03:00;1221.55;;;999.90;;
22015;SDS011;11172;51.698;-0.292;2022-07-09T11:05:32;1239.20;;;999.90;;
22015;SDS011;11172;51.698;-0.292;2022-07-09T11:08:00;1225.07;;;999.90;;
22015;SDS011;11172;51.698;-0.292;2022-07-09T11:10:27;1248.95;;;999.90;;
22015;SDS011;11172;51.698;-0.292;2022-07-09T11:12:54;1264.22;;;999.90;;
22015;SDS011;11172;51.698;-0.292;2022-07-09T11:15:20;1279.07;;;999.90;;
22015;SDS011;11172;51.698;-0.292;2022-07-09T11:18:20;1282.55;;;999.90;;
22015;SDS011;11172;51.698;-0.292;2022-07-09T11:20:44;1288.97;;;999.90;;
22015;SDS011;11172;51.698;-0.292;2022-07-09T11:23:10;1266.75;;;999.90;;
22015;SDS011;11172;51.698;-0.292;2022-07-09T11:25:37;1213.75;;;999.90;;
22015;SDS011;11172;51.698;-0.292;2022-07-09T11:28:03;1203.45;;;999.90;;
22015;SDS011;11172;51.698;-0.292;2022-07-09T11:30:29;1194.40;;;999.90;;
22015;SDS011;11172;51.698;-0.292;2022-07-09T11:32:57;1193.00;;;999.90;;
22015;SDS011;11172;51.698;-0.292;2022-07-09T11:35:28;1204.55;;;999.90;;
22015;SDS011;11172;51.698;-0.292;2022-07-09T11:37:55;1194.10;;;999.90;;
22015;SDS011;11172;51.698;-0.292;2022-07-09T11:40:21;1171.70;;;999.90;;
22015;SDS011;11172;51.698;-0.292;2022-07-09T11:42:50;1163.85;;;999.90;;
22015;SDS011;11172;51.698;-0.292;2022-07-09T11:45:20;1151.97;;;999.90;;
22015;SDS011;11172;51.698;-0.292;2022-07-09T11:47:46;1129.28;;;999.90;;
22015;SDS011;11172;51.698;-0.292;2022-07-09T11:50:13;1140.20;;;999.90;;
22015;SDS011;11172;51.698;-0.292;2022-07-09T11:52:43;1106.60;;;994.08;;
22015;SDS011;11172;51.698;-0.292;2022-07-09T11:55:14;1109.65;;;994.78;;
22015;SDS011;11172;51.698;-0.292;2022-07-09T11:57:50;1067.25;;;961.92;;
22015;SDS011;11172;51.698;-0.292;2022-07-09T12:00:26;1059.45;;;954.08;;
22015;SDS011;11172;51.698;-0.292;2022-07-09T12:02:53;1071.47;;;965.33;;
22015;SDS011;11172;51.698;-0.292;2022-07-09T12:05:25;1034.90;;;931.00;;
22015;SDS011;11172;51.698;-0.292;2022-07-09T12:07:52;1032.55;;;928.75;;
22015;SDS011;11172;51.698;-0.292;2022-07-09T12:10:24;1030.78;;;926.70;;
22015;SDS011;11172;51.698;-0.292;2022-07-09T12:12:50;1029.65;;;926.17;;
22015;SDS011;11172;51.698;-0.292;2022-07-09T12:15:16;1012.40;;;909.95;;
22015;SDS011;11172;51.698;-0.292;2022-07-09T12:17:42;1006.35;;;904.13;;
22015;SDS011;11172;51.698;-0.292;2022-07-09T12:20:08;1010.13;;;907.42;;
22015;SDS011;11172;51.698;-0.292;2022-07-09T12:22:34;1003.85;;;902.03;;
22015;SDS011;11172;51.698;-0.292;2022-07-09T12:25:01;1018.22;;;915.10;;
22015;SDS011;11172;51.698;-0.292;2022-07-09T12:27:28;1017.00;;;914.13;;
22015;SDS011;11172;51.698;-0.292;2022-07-09T12:29:54;1013.40;;;910.92;;
22015;SDS011;11172;51.698;-0.292;2022-07-09T12:32:20;996.70;;;895.40;;
22015;SDS011;11172;51.698;-0.292;2022-07-09T12:34:46;1009.50;;;907.45;;
22015;SDS011;11172;51.698;-0.292;2022-07-09T12:37:12;1024.45;;;921.28;;
22015;SDS011;11172;51.698;-0.292;2022-07-09T12:39:38;1023.47;;;920.80;;
22015;SDS011;11172;51.698;-0.292;2022-07-09T12:42:04;1038.85;;;934.80;;
22015;SDS011;11172;51.698;-0.292;2022-07-09T12:44:30;1040.90;;;936.45;;
22015;SDS011;11172;51.698;-0.292;2022-07-09T12:46:56;1055.03;;;949.80;;
22015;SDS011;11172;51.698;-0.292;2022-07-09T12:49:22;1050.53;;;945.33;;
22015;SDS011;11172;51.698;-0.292;2022-07-09T12:51:48;1052.82;;;948.00;;
22015;SDS011;11172;51.698;-0.292;2022-07-09T12:54:14;1036.80;;;933.20;;
22015;SDS011;11172;51.698;-0.292;2022-07-09T12:56:40;1043.78;;;939.83;;
22015;SDS011;11172;51.698;-0.292;2022-07-09T12:59:06;1043.80;;;939.00;;
22015;SDS011;11172;51.698;-0.292;2022-07-09T13:01:32;1065.50;;;960.03;;
22015;SDS011;11172;51.698;-0.292;2022-07-09T13:03:58;1079.45;;;972.35;;
22015;SDS011;11172;51.698;-0.292;2022-07-09T13:06:25;1079.22;;;971.70;;
22015;SDS011;11172;51.698;-0.292;2022-07-09T13:08:57;1067.82;;;962.22;;
22015;SDS011;11172;51.698;-0.292;2022-07-09T13:11:23;1052.95;;;947.88;;
22015;SDS011;11172;51.698;-0.292;2022-07-09T13:13:49;1035.40;;;932.08;;
22015;SDS011;11172;51.698;-0.292;2022-07-09T13:16:15;1035.22;;;931.60;;
22015;SDS011;11172;51.698;-0.292;2022-07-09T13:18:41;1032.18;;;928.25;;
22015;SDS011;11172;51.698;-0.292;2022-07-09T13:21:09;1021.83;;;918.95;;
22015;SDS011;11172;51.698;-0.292;2022-07-09T13:23:35;1023.35;;;920.05;;
22015;SDS011;11172;51.698;-0.292;2022-07-09T13:26:02;1024.45;;;920.92;;
22015;SDS011;11172;51.698;-0.292;2022-07-09T13:28:28;1022.67;;;919.05;;
22015;SDS011;11172;51.698;-0.292;2022-07-09T13:30:54;1012.78;;;910.22;;
22015;SDS011;11172;51.698;-0.292;2022-07-09T13:33:20;1013.10;;;910.40;;
22015;SDS011;11172;51.698;-0.292;2022-07-09T13:35:46;987.00;;;886.38;;
22015;SDS011;11172;51.698;-0.292;2022-07-09T13:38:12;1021.10;;;917.95;;
22015;SDS011;11172;51.698;-0.292;2022-07-09T13:40:38;1013.60;;;911.05;;
22015;SDS011;11172;51.698;-0.292;2022-07-09T13:43:04;986.05;;;885.28;;
22015;SDS011;11172;51.698;-0.292;2022-07-09T13:45:31;991.55;;;890.47;;
22015;SDS011;11172;51.698;-0.292;2022-07-09T13:47:57;998.97;;;897.70;;